National, Iowa
Current Conditions -  °F | °C
As of 1:55 PM on Wednesday 28 Jan 2015 (Local Time) from KPDC Reporting Station
Clear Clear  
Wind Chill: 25°   Ceiling: Unl
Heat Index: 34°   Visibility: 10mi
Dew Point: 22°   Wind: 14mph
Humidity: 63%   Direction: 120°ESE
Pressure: 29.93"   Gusts: 21mph
Location:  42.9505°N, 91.311°W
Report Text: KPDC 281955Z AUTO 12012G18KT 10SM CLR 01/M05 A2993 RMK AO2 T00111053
Loading
Personal Weather Stations






























Interactive Weather Map New forecast layout! Learn more

10-Day Weather Forecast

Advertisements
Track Severe Weather on mobile